createdAt,value
2022-08-28T00:00:48.273Z,16.97
2022-08-28T00:03:18.045Z,16.93
2022-08-28T00:05:47.789Z,16.91
2022-08-28T00:08:18.336Z,16.89
2022-08-28T00:10:48.614Z,16.86
2022-08-28T00:13:20.657Z,16.87
2022-08-28T00:15:58.196Z,16.85
2022-08-28T00:18:27.957Z,16.88
2022-08-28T00:20:58.744Z,16.89
2022-08-28T00:23:40.293Z,16.90
2022-08-28T00:26:32.211Z,16.89
2022-08-28T00:28:58.983Z,16.89
2022-08-28T00:31:28.334Z,16.84
2022-08-28T00:34:02.821Z,16.83
2022-08-28T00:36:32.759Z,16.84
2022-08-28T00:39:02.658Z,16.81
2022-08-28T00:41:34.517Z,16.81
2022-08-28T00:44:17.863Z,16.78
2022-08-28T00:46:49.851Z,16.79
2022-08-28T00:49:21.213Z,16.76
2022-08-28T00:52:03.844Z,16.74
2022-08-28T00:54:35.449Z,16.74
2022-08-28T00:57:12.653Z,16.75
2022-08-28T00:59:42.099Z,16.77
2022-08-28T01:02:11.539Z,16.77
2022-08-28T01:04:41.297Z,16.78
2022-08-28T01:07:13.027Z,16.78
2022-08-28T01:09:45.364Z,16.78
2022-08-28T01:12:24.389Z,16.77
2022-08-28T01:14:58.095Z,16.77
2022-08-28T01:17:29.310Z,16.78
2022-08-28T01:20:03.271Z,16.75
2022-08-28T01:22:38.777Z,16.71
2022-08-28T01:25:15.049Z,16.71
2022-08-28T01:27:44.759Z,16.70
2022-08-28T01:30:17.578Z,16.70
2022-08-28T01:32:51.377Z,16.70
2022-08-28T01:35:27.654Z,16.68
2022-08-28T01:37:58.042Z,16.70
2022-08-28T01:40:40.857Z,16.70
2022-08-28T01:43:14.545Z,16.70
2022-08-28T01:45:46.717Z,16.67
2022-08-28T01:48:17.102Z,16.66
2022-08-28T01:50:46.477Z,16.65
2022-08-28T01:53:18.227Z,16.63
2022-08-28T01:55:48.623Z,16.63
2022-08-28T01:58:18.062Z,16.59
2022-08-28T02:00:47.354Z,16.59
2022-08-28T02:03:16.843Z,16.59
2022-08-28T02:05:46.155Z,16.58
2022-08-28T02:08:15.450Z,16.57
2022-08-28T02:10:45.998Z,16.60
2022-08-28T02:13:16.943Z,16.57
2022-08-28T02:15:47.214Z,16.54
2022-08-28T02:18:17.391Z,16.55
2022-08-28T02:20:46.793Z,16.53
2022-08-28T02:23:16.586Z,16.53
2022-08-28T02:25:45.879Z,16.54
2022-08-28T02:28:17.050Z,16.56
2022-08-28T02:30:46.353Z,16.54
2022-08-28T02:33:16.306Z,16.56
2022-08-28T02:35:45.797Z,16.55
2022-08-28T02:38:15.433Z,16.56
2022-08-28T02:40:44.854Z,16.54
2022-08-28T02:43:14.180Z,16.52
2022-08-28T02:45:43.470Z,16.51
2022-08-28T02:48:16.923Z,16.49
2022-08-28T02:50:47.211Z,16.49
2022-08-28T02:53:16.987Z,16.51
2022-08-28T02:55:46.692Z,16.48
2022-08-28T02:58:16.021Z,16.46
2022-08-28T03:00:45.297Z,16.44
2022-08-28T03:03:14.604Z,16.43
2022-08-28T03:05:43.937Z,16.44
2022-08-28T03:08:13.449Z,16.42
2022-08-28T03:10:42.845Z,16.41
2022-08-28T03:13:26.496Z,16.42
2022-08-28T03:15:56.975Z,16.43
2022-08-28T03:18:30.228Z,16.42
2022-08-28T03:20:59.584Z,16.42
2022-08-28T03:23:30.200Z,16.43
2022-08-28T03:26:05.183Z,16.41
2022-08-28T03:28:41.042Z,16.39
2022-08-28T03:31:12.007Z,16.36
2022-08-28T03:33:42.660Z,16.32
2022-08-28T03:36:17.775Z,16.28
2022-08-28T03:38:47.099Z,16.23
2022-08-28T03:41:18.875Z,16.23
2022-08-28T03:43:48.772Z,16.21
2022-08-28T03:46:20.972Z,16.21
2022-08-28T03:48:50.465Z,16.19
2022-08-28T03:51:29.192Z,16.17
2022-08-28T03:54:02.823Z,16.17
2022-08-28T03:56:33.185Z,16.15
2022-08-28T03:59:04.455Z,16.14
2022-08-28T04:01:33.899Z,16.13
2022-08-28T04:04:03.296Z,16.11
2022-08-28T04:06:32.889Z,16.10
2022-08-28T04:09:08.464Z,16.10
2022-08-28T04:11:43.970Z,16.08
2022-08-28T04:14:14.643Z,16.05
2022-08-28T04:16:44.434Z,16.02
2022-08-28T04:19:14.002Z,16.01
2022-08-28T04:21:44.186Z,15.97
2022-08-28T04:24:13.815Z,15.97
2022-08-28T04:26:45.109Z,15.95
2022-08-28T04:29:14.421Z,15.93
2022-08-28T04:31:43.782Z,15.93
2022-08-28T04:34:13.467Z,15.94
2022-08-28T04:36:42.780Z,15.88
2022-08-28T04:39:12.355Z,15.82
2022-08-28T04:41:41.775Z,15.74
2022-08-28T04:44:11.232Z,15.68
2022-08-28T04:46:40.661Z,15.60
2022-08-28T04:49:10.338Z,15.56
2022-08-28T04:51:42.160Z,15.53
2022-08-28T04:54:13.294Z,15.51
2022-08-28T04:56:43.718Z,15.52
2022-08-28T04:59:13.576Z,15.52
2022-08-28T05:01:44.326Z,15.47
2022-08-28T05:04:14.510Z,15.47
2022-08-28T05:06:46.657Z,15.47
2022-08-28T05:09:18.537Z,15.49
2022-08-28T05:11:48.859Z,15.48
2022-08-28T05:14:20.212Z,15.47
2022-08-28T05:16:52.913Z,15.46
2022-08-28T05:19:24.244Z,15.47
2022-08-28T05:21:55.054Z,15.46
2022-08-28T05:24:24.660Z,15.45
2022-08-28T05:26:54.119Z,15.42
2022-08-28T05:29:23.487Z,15.39
2022-08-28T05:31:54.754Z,15.37
2022-08-28T05:34:24.388Z,15.36
2022-08-28T05:36:53.868Z,15.36
2022-08-28T05:39:23.580Z,15.33
2022-08-28T05:41:53.286Z,15.29
2022-08-28T05:44:22.829Z,15.28
2022-08-28T05:46:52.118Z,15.30
2022-08-28T05:49:22.286Z,15.29
2022-08-28T05:51:52.564Z,15.27
2022-08-28T05:54:22.439Z,15.26
2022-08-28T05:56:51.806Z,15.26
2022-08-28T05:59:21.122Z,15.26
2022-08-28T06:01:51.934Z,15.25
2022-08-28T06:04:24.014Z,15.23
2022-08-28T06:06:53.320Z,15.24
2022-08-28T06:09:30.732Z,15.26
2022-08-28T06:12:02.827Z,15.25
2022-08-28T06:14:33.176Z,15.22
2022-08-28T06:17:05.006Z,15.18
2022-08-28T06:19:41.052Z,15.18
2022-08-28T06:22:12.415Z,15.20
2022-08-28T06:24:41.752Z,15.19
2022-08-28T06:27:11.109Z,15.19
2022-08-28T06:29:40.399Z,15.13
2022-08-28T06:32:10.056Z,15.11
2022-08-28T06:34:39.444Z,15.10
2022-08-28T06:37:09.955Z,15.10
2022-08-28T06:39:39.360Z,15.11
2022-08-28T06:42:08.709Z,15.11
2022-08-28T06:44:38.628Z,15.12
2022-08-28T06:47:07.941Z,15.09
2022-08-28T06:49:37.275Z,15.12
2022-08-28T06:52:06.773Z,15.13
2022-08-28T06:54:36.068Z,15.12
2022-08-28T06:57:07.544Z,15.07
2022-08-28T06:59:36.849Z,15.04
2022-08-28T07:02:09.532Z,15.07
2022-08-28T07:04:38.981Z,15.04
2022-08-28T07:07:10.615Z,15.05
2022-08-28T07:09:48.481Z,15.04
2022-08-28T07:12:19.012Z,15.00
2022-08-28T07:14:48.625Z,14.98
2022-08-28T07:17:18.160Z,14.98
2022-08-28T07:19:47.669Z,14.98
2022-08-28T07:22:16.951Z,14.99
2022-08-28T07:24:46.346Z,15.00
2022-08-28T07:27:18.901Z,14.99
2022-08-28T07:29:48.493Z,15.02
2022-08-28T07:32:19.300Z,15.03
2022-08-28T07:34:48.602Z,15.06
2022-08-28T07:37:21.895Z,15.06
2022-08-28T07:39:52.115Z,15.04
2022-08-28T07:42:35.699Z,15.04
2022-08-28T07:45:05.280Z,15.08
2022-08-28T07:47:34.812Z,15.06
2022-08-28T07:50:04.115Z,15.09
2022-08-28T07:52:33.610Z,15.10
2022-08-28T07:55:03.062Z,15.10
2022-08-28T07:57:32.349Z,15.14
2022-08-28T08:00:01.709Z,15.19
2022-08-28T08:02:31.070Z,15.22
2022-08-28T08:05:00.459Z,15.24
2022-08-28T08:07:30.166Z,15.27
2022-08-28T08:09:59.444Z,15.30
2022-08-28T08:12:29.398Z,15.33
2022-08-28T08:14:58.951Z,15.35
2022-08-28T08:17:28.761Z,15.37
2022-08-28T08:19:58.236Z,15.38
2022-08-28T08:22:27.754Z,15.35
2022-08-28T08:24:57.291Z,15.33
2022-08-28T08:27:26.645Z,15.36
2022-08-28T08:29:56.172Z,15.33
2022-08-28T08:32:25.618Z,15.36
2022-08-28T08:34:57.115Z,15.40
2022-08-28T08:37:26.487Z,15.43
2022-08-28T08:39:55.990Z,15.49
2022-08-28T08:42:31.832Z,15.54
2022-08-28T08:45:06.185Z,15.58
2022-08-28T08:47:41.284Z,15.66
2022-08-28T08:50:17.807Z,15.77
2022-08-28T08:53:17.711Z,15.88
2022-08-28T08:56:09.663Z,16.04
2022-08-28T08:58:42.852Z,16.18
2022-08-28T09:01:18.738Z,16.27
2022-08-28T09:04:15.686Z,16.34
2022-08-28T09:06:53.610Z,16.42
2022-08-28T09:09:43.149Z,16.53
2022-08-28T09:12:17.601Z,16.64
2022-08-28T09:15:05.789Z,16.68
2022-08-28T09:17:39.099Z,16.71
2022-08-28T09:20:11.347Z,16.74
2022-08-28T09:22:47.303Z,16.77
2022-08-28T09:26:06.118Z,16.73
2022-08-28T09:28:42.253Z,16.71
2022-08-28T09:31:20.395Z,16.69
2022-08-28T09:33:58.549Z,16.67
2022-08-28T09:36:36.647Z,16.69
2022-08-28T09:39:13.907Z,16.65
2022-08-28T09:42:30.344Z,16.63
2022-08-28T09:45:32.165Z,16.60
2022-08-28T09:48:03.663Z,16.66
2022-08-28T09:50:38.276Z,16.78
2022-08-28T09:53:19.548Z,16.91
2022-08-28T09:55:59.868Z,17.00
2022-08-28T09:58:58.657Z,17.00
2022-08-28T10:01:57.128Z,17.02
2022-08-28T10:04:51.963Z,17.04
2022-08-28T10:07:45.032Z,17.04
2022-08-28T10:10:38.687Z,17.04
2022-08-28T10:13:18.980Z,16.97
2022-08-28T10:16:12.136Z,16.94
2022-08-28T10:18:59.526Z,16.87
2022-08-28T10:22:10.097Z,16.87
2022-08-28T10:24:54.578Z,16.91
2022-08-28T10:27:44.228Z,16.93
2022-08-28T10:30:19.039Z,16.95
2022-08-28T10:33:07.036Z,16.94
2022-08-28T10:35:47.272Z,16.97
2022-08-28T10:38:22.951Z,16.95
2022-08-28T10:41:07.153Z,16.91
2022-08-28T10:43:43.351Z,16.87
2022-08-28T10:46:17.820Z,16.86
2022-08-28T10:48:47.639Z,16.83
2022-08-28T10:51:40.562Z,16.86
2022-08-28T10:54:30.973Z,16.89
2022-08-28T10:57:09.437Z,16.93
2022-08-28T10:59:42.164Z,16.94
2022-08-28T11:02:14.255Z,16.97
2022-08-28T11:05:04.182Z,17.01
2022-08-28T11:08:52.408Z,17.06
2022-08-28T11:15:44.848Z,17.05
2022-08-28T11:18:16.891Z,17.04
2022-08-28T11:21:00.156Z,17.03
2022-08-28T11:24:00.206Z,17.01
2022-08-28T11:26:50.456Z,17.05
2022-08-28T11:30:00.883Z,17.05
2022-08-28T11:32:41.435Z,17.05
2022-08-28T11:35:40.746Z,17.05
2022-08-28T11:38:10.745Z,17.07
2022-08-28T11:40:55.727Z,17.10
2022-08-28T11:43:25.122Z,17.09
2022-08-28T11:45:59.341Z,17.12
2022-08-28T11:48:28.763Z,17.17
2022-08-28T11:51:02.437Z,17.23
2022-08-28T11:53:49.778Z,17.29
2022-08-28T11:56:41.007Z,17.37
2022-08-28T11:59:35.101Z,17.43
2022-08-28T12:02:43.386Z,17.49
2022-08-28T12:05:15.360Z,17.57
2022-08-28T12:07:50.900Z,17.62
2022-08-28T12:10:23.006Z,17.67
2022-08-28T12:12:54.246Z,17.72
2022-08-28T12:15:33.485Z,17.81
2022-08-28T12:18:05.388Z,17.87
2022-08-28T12:21:00.229Z,17.92
2022-08-28T12:24:04.123Z,18.01
2022-08-28T12:26:40.147Z,18.08
2022-08-28T12:29:27.072Z,18.16
2022-08-28T12:32:18.884Z,18.16
2022-08-28T12:34:56.587Z,18.18
2022-08-28T12:37:39.776Z,18.19
2022-08-28T12:40:22.245Z,18.18
2022-08-28T12:42:55.781Z,18.16
2022-08-28T12:45:38.347Z,18.16
2022-08-28T12:48:29.216Z,18.17
2022-08-28T12:51:14.184Z,18.17
2022-08-28T12:53:46.456Z,18.18
2022-08-28T12:56:18.183Z,18.18
2022-08-28T12:58:48.493Z,18.21
2022-08-28T13:01:24.043Z,18.22
2022-08-28T13:04:05.238Z,18.18
2022-08-28T13:06:35.969Z,18.16
2022-08-28T13:09:25.889Z,18.14
2022-08-28T13:11:55.232Z,18.17
2022-08-28T13:14:45.882Z,18.24
2022-08-28T13:17:17.944Z,18.34
2022-08-28T13:19:47.250Z,18.42
2022-08-28T13:22:38.129Z,18.51
2022-08-28T13:25:08.235Z,18.53
2022-08-28T13:27:38.501Z,18.55
2022-08-28T13:30:09.748Z,18.60
2022-08-28T13:32:41.979Z,18.64
2022-08-28T13:35:20.089Z,18.70
2022-08-28T13:37:54.573Z,18.75
2022-08-28T13:40:56.209Z,18.80
2022-08-28T13:43:20.675Z,18.91
2022-08-28T13:45:51.422Z,18.97
2022-08-28T13:48:26.991Z,19.13
2022-08-28T13:51:00.634Z,19.25
2022-08-28T13:53:32.362Z,19.33
2022-08-28T13:56:02.915Z,19.44
2022-08-28T13:58:32.213Z,19.55
2022-08-28T14:01:01.718Z,19.68
2022-08-28T14:03:38.521Z,19.71
2022-08-28T14:06:11.982Z,19.72
2022-08-28T14:08:43.754Z,19.67
2022-08-28T14:11:15.186Z,19.63
2022-08-28T14:13:47.278Z,19.60
2022-08-28T14:16:26.066Z,19.56
2022-08-28T14:18:55.876Z,19.54
2022-08-28T14:21:26.006Z,19.52
2022-08-28T14:23:55.325Z,19.48
2022-08-28T14:26:24.958Z,19.45
2022-08-28T14:28:54.345Z,19.40
2022-08-28T14:31:26.418Z,19.37
2022-08-28T14:33:56.145Z,19.35
2022-08-28T14:36:28.122Z,19.36
2022-08-28T14:39:04.033Z,19.36
2022-08-28T14:41:35.697Z,19.39
2022-08-28T14:44:05.654Z,19.38
2022-08-28T14:46:38.887Z,19.36
2022-08-28T14:49:10.403Z,19.34
2022-08-28T14:51:41.374Z,19.36
2022-08-28T14:54:12.198Z,19.41
2022-08-28T14:56:41.562Z,19.46
2022-08-28T14:59:20.693Z,19.48
2022-08-28T15:01:53.584Z,19.52
2022-08-28T15:04:26.236Z,19.59
2022-08-28T15:07:01.081Z,19.63
2022-08-28T15:09:30.500Z,19.66
2022-08-28T15:11:59.850Z,19.67
2022-08-28T15:14:29.174Z,19.68
2022-08-28T15:16:58.640Z,19.69
2022-08-28T15:19:30.146Z,19.69
2022-08-28T15:22:00.349Z,19.66
2022-08-28T15:24:34.349Z,19.72
2022-08-28T15:27:04.204Z,19.75
2022-08-28T15:29:33.745Z,19.80
2022-08-28T15:32:03.844Z,19.83
2022-08-28T15:34:33.363Z,19.80
2022-08-28T15:37:04.246Z,19.77
2022-08-28T15:39:49.753Z,19.73
2022-08-28T15:42:19.243Z,19.65
2022-08-28T15:44:48.612Z,19.60
2022-08-28T15:47:18.080Z,19.57
2022-08-28T15:49:49.906Z,19.55
2022-08-28T15:52:21.252Z,19.51
2022-08-28T15:54:51.466Z,19.49
2022-08-28T15:57:20.867Z,19.47
2022-08-28T15:59:50.906Z,19.47
2022-08-28T16:02:27.808Z,19.45
2022-08-28T16:04:58.310Z,19.43
2022-08-28T16:07:27.801Z,19.40
2022-08-28T16:09:57.129Z,19.36
2022-08-28T16:12:26.750Z,19.33
2022-08-28T16:14:56.020Z,19.33
2022-08-28T16:17:25.396Z,19.30
2022-08-28T16:19:55.207Z,19.29
2022-08-28T16:22:24.638Z,19.30
2022-08-28T16:24:54.048Z,19.28
2022-08-28T16:27:24.873Z,19.26
2022-08-28T16:29:54.181Z,19.27
2022-08-28T16:32:25.855Z,19.25
2022-08-28T16:34:55.980Z,19.23
2022-08-28T16:37:25.520Z,19.22
2022-08-28T16:39:57.940Z,19.20
2022-08-28T16:42:32.217Z,19.19
2022-08-28T16:45:04.219Z,19.14
2022-08-28T16:47:36.460Z,19.13
2022-08-28T16:50:11.509Z,19.10
2022-08-28T16:52:41.519Z,19.08
2022-08-28T16:55:14.997Z,19.04
2022-08-28T16:57:45.134Z,19.00
2022-08-28T17:00:15.439Z,18.97
2022-08-28T17:02:45.248Z,18.94
2022-08-28T17:05:17.408Z,18.93
2022-08-28T17:07:47.072Z,18.91
2022-08-28T17:10:18.956Z,18.91
2022-08-28T17:12:48.383Z,18.87
2022-08-28T17:15:18.984Z,18.81
2022-08-28T17:17:48.949Z,18.77
2022-08-28T17:20:31.031Z,18.73
2022-08-28T17:23:00.483Z,18.68
2022-08-28T17:25:30.411Z,18.67
2022-08-28T17:27:59.749Z,18.62
2022-08-28T17:30:29.172Z,18.59
2022-08-28T17:33:03.083Z,18.57
2022-08-28T17:35:33.807Z,18.54
2022-08-28T17:38:11.703Z,18.48
2022-08-28T17:40:41.328Z,18.45
2022-08-28T17:43:11.167Z,18.40
2022-08-28T17:45:40.632Z,18.36
2022-08-28T17:48:10.369Z,18.30
2022-08-28T17:50:40.238Z,18.27
2022-08-28T17:53:10.217Z,18.20
2022-08-28T17:55:39.911Z,18.14
2022-08-28T17:58:09.513Z,18.09
2022-08-28T18:00:39.328Z,18.04
2022-08-28T18:03:10.063Z,17.98
2022-08-28T18:05:41.368Z,17.92
2022-08-28T18:08:11.194Z,17.86
2022-08-28T18:10:40.676Z,17.81
2022-08-28T18:13:10.295Z,17.76
2022-08-28T18:15:39.890Z,17.70
2022-08-28T18:18:16.311Z,17.65
2022-08-28T18:20:45.798Z,17.59
2022-08-28T18:23:15.745Z,17.56
2022-08-28T18:25:46.683Z,17.47
2022-08-28T18:28:23.762Z,17.40
2022-08-28T18:30:54.355Z,17.35
2022-08-28T18:33:26.158Z,17.26
2022-08-28T18:35:56.146Z,17.21
2022-08-28T18:38:28.220Z,17.13
2022-08-28T18:40:59.808Z,17.06
2022-08-28T18:43:29.496Z,17.02
2022-08-28T18:45:59.349Z,16.95
2022-08-28T18:48:28.917Z,16.88
2022-08-28T18:50:58.411Z,16.82
2022-08-28T18:53:29.056Z,16.78
2022-08-28T18:56:01.820Z,16.75
2022-08-28T18:58:33.291Z,16.70
2022-08-28T19:01:03.928Z,16.67
2022-08-28T19:03:33.697Z,16.64
2022-08-28T19:06:03.217Z,16.59
2022-08-28T19:08:32.937Z,16.56
2022-08-28T19:11:02.699Z,16.52
2022-08-28T19:13:32.309Z,16.49
2022-08-28T19:16:04.933Z,16.48
2022-08-28T19:18:34.902Z,16.45
2022-08-28T19:21:16.158Z,16.43
2022-08-28T19:23:55.480Z,16.38
2022-08-28T19:26:26.177Z,16.36
2022-08-28T19:28:56.279Z,16.33
2022-08-28T19:31:29.852Z,16.27
2022-08-28T19:34:00.337Z,16.27
2022-08-28T19:36:30.420Z,16.21
2022-08-28T19:39:01.098Z,16.17
2022-08-28T19:41:32.557Z,16.13
2022-08-28T19:44:02.580Z,16.07
2022-08-28T19:46:32.185Z,16.03
2022-08-28T19:49:03.465Z,15.98
2022-08-28T19:51:33.432Z,15.87
2022-08-28T19:54:03.867Z,15.80
2022-08-28T19:56:35.215Z,15.77
2022-08-28T19:59:07.675Z,15.70
2022-08-28T20:01:46.637Z,15.68
2022-08-28T20:04:17.889Z,15.63
2022-08-28T20:06:48.324Z,15.61
2022-08-28T20:09:21.034Z,15.55
2022-08-28T20:11:50.823Z,15.51
2022-08-28T20:14:21.316Z,15.48
2022-08-28T20:16:54.603Z,15.47
2022-08-28T20:19:24.929Z,15.35
2022-08-28T20:21:55.178Z,15.29
2022-08-28T20:24:25.886Z,15.27
2022-08-28T20:26:58.500Z,15.27
2022-08-28T20:29:28.024Z,15.27
2022-08-28T20:32:00.090Z,15.25
2022-08-28T20:45:59.489Z,15.04
2022-08-28T20:49:18.187Z,14.94
2022-08-28T20:52:15.312Z,14.84
2022-08-28T20:55:31.550Z,14.80
2022-08-28T20:58:18.999Z,14.73
2022-08-28T21:01:02.283Z,14.71
2022-08-28T21:03:41.385Z,14.70
2022-08-28T21:06:13.591Z,14.67
2022-08-28T21:09:02.792Z,14.68
2022-08-28T21:11:47.544Z,14.66
2022-08-28T21:15:08.264Z,14.66
2022-08-28T21:18:18.089Z,14.66
2022-08-28T21:24:18.553Z,14.61
2022-08-28T21:27:05.760Z,14.60
2022-08-28T21:30:29.737Z,14.56
2022-08-28T21:33:56.724Z,14.51
2022-08-28T21:36:36.851Z,14.47
2022-08-28T21:39:22.071Z,14.40
2022-08-28T21:42:05.742Z,14.31
2022-08-28T21:45:00.068Z,14.31
2022-08-28T21:47:41.867Z,14.28
2022-08-28T21:50:21.184Z,14.25
2022-08-28T21:52:58.323Z,14.23
2022-08-28T21:55:42.526Z,14.11
2022-08-28T21:58:29.632Z,14.07
2022-08-28T22:02:04.022Z,14.03
2022-08-28T22:04:23.669Z,14.00
2022-08-28T22:07:03.960Z,13.98
2022-08-28T22:09:55.011Z,13.99
2022-08-28T22:13:07.487Z,13.92
2022-08-28T22:15:41.618Z,13.92
2022-08-28T22:18:15.112Z,13.90
2022-08-28T22:21:15.126Z,13.89
2022-08-28T22:24:40.619Z,13.91
2022-08-28T22:27:32.284Z,13.89
2022-08-28T22:30:46.637Z,13.87
2022-08-28T22:37:29.397Z,13.81
2022-08-28T22:40:13.084Z,13.80
2022-08-28T22:42:57.782Z,13.84
2022-08-28T22:45:31.531Z,13.80
2022-08-28T22:48:19.957Z,13.74
2022-08-28T22:51:14.184Z,13.75
2022-08-28T22:53:54.884Z,13.71
2022-08-28T22:56:34.933Z,13.66
2022-08-28T22:59:23.589Z,13.66
2022-08-28T23:01:56.277Z,13.65
2022-08-28T23:04:38.625Z,13.61
2022-08-28T23:07:15.557Z,13.58
2022-08-28T23:09:51.818Z,13.58
2022-08-28T23:13:01.370Z,13.56
2022-08-28T23:15:35.351Z,13.43
2022-08-28T23:19:07.508Z,13.37
2022-08-28T23:25:12.220Z,13.24
2022-08-28T23:28:08.172Z,13.27
2022-08-28T23:31:18.712Z,13.28
2022-08-28T23:33:52.852Z,13.27
2022-08-28T23:36:56.148Z,13.19
